createdAt,value
2022-09-27T00:00:05.302Z,99331.88
2022-09-27T00:02:39.031Z,99325.13
2022-09-27T00:05:06.162Z,99327.38
2022-09-27T00:07:33.228Z,99319.91
2022-09-27T00:09:59.969Z,99315.38
2022-09-27T00:12:26.730Z,99307.78
2022-09-27T00:14:53.415Z,99313.06
2022-09-27T00:17:20.089Z,99307.91
2022-09-27T00:19:46.755Z,99309.81
2022-09-27T00:22:13.501Z,99306.25
2022-09-27T00:24:40.152Z,99306.78
2022-09-27T00:27:06.844Z,99305.28
2022-09-27T00:29:33.663Z,99297.69
2022-09-27T00:32:00.540Z,99298.53
2022-09-27T00:34:27.354Z,99296.41
2022-09-27T00:36:55.593Z,99287.81
2022-09-27T00:39:22.283Z,99290.16
2022-09-27T00:41:48.991Z,99287.63
2022-09-27T00:44:24.873Z,99286.22
2022-09-27T00:47:07.917Z,99283.44
2022-09-27T00:49:41.410Z,99283.78
2022-09-27T00:52:17.745Z,99277.44
2022-09-27T00:54:46.661Z,99273.28
2022-09-27T00:57:13.410Z,99267.31
2022-09-27T00:59:48.801Z,99260.25
2022-09-27T01:02:15.823Z,99262.03
2022-09-27T01:04:43.500Z,99256.63
2022-09-27T01:07:10.171Z,99256.41
2022-09-27T01:09:36.906Z,99245.75
2022-09-27T01:12:37.165Z,99254.56
2022-09-27T01:15:13.357Z,99240.44
2022-09-27T01:17:43.635Z,99237.53
2022-09-27T01:20:31.403Z,99235.19
2022-09-27T01:23:26.904Z,99231.03
2022-09-27T01:26:14.611Z,99228.00
2022-09-27T01:28:57.435Z,99234.94
2022-09-27T01:31:59.576Z,99227.84
2022-09-27T01:34:34.620Z,99225.72
2022-09-27T01:37:22.610Z,99221.31
2022-09-27T01:40:03.069Z,99217.38
2022-09-27T01:42:55.763Z,99219.63
2022-09-27T01:45:32.895Z,99208.31
2022-09-27T01:48:22.316Z,99204.47
2022-09-27T01:51:04.532Z,99203.31
2022-09-27T01:53:34.883Z,99196.44
2022-09-27T01:56:35.183Z,99184.94
2022-09-27T01:59:20.255Z,99180.91
2022-09-27T02:01:59.864Z,99175.38
2022-09-27T02:04:34.035Z,99179.00
2022-09-27T02:07:14.814Z,99170.97
2022-09-27T02:09:47.994Z,99174.19
2022-09-27T02:12:21.908Z,99163.03
2022-09-27T02:14:54.608Z,99164.63
2022-09-27T02:17:33.212Z,99160.25
2022-09-27T02:20:40.320Z,99160.56
2022-09-27T02:23:23.262Z,99156.19
2022-09-27T02:26:00.637Z,99158.13
2022-09-27T02:28:31.268Z,99157.91
2022-09-27T02:30:58.275Z,99152.34
2022-09-27T02:33:35.294Z,99150.09
2022-09-27T02:36:02.406Z,99147.22
2022-09-27T02:38:29.575Z,99143.56
2022-09-27T02:40:58.323Z,99142.94
2022-09-27T02:43:29.708Z,99135.97
2022-09-27T02:46:20.595Z,99130.38
2022-09-27T02:49:04.111Z,99128.91
2022-09-27T02:51:49.555Z,99135.34
2022-09-27T02:54:26.773Z,99125.78
2022-09-27T02:57:35.236Z,99128.06
2022-09-27T03:00:44.783Z,99127.84
2022-09-27T03:03:52.759Z,99125.94
2022-09-27T03:06:21.024Z,99123.78
2022-09-27T03:08:47.959Z,99127.28
2022-09-27T03:11:14.873Z,99120.78
2022-09-27T03:14:06.965Z,99126.84
2022-09-27T03:16:31.306Z,99120.34
2022-09-27T03:19:10.458Z,99125.31
2022-09-27T03:22:00.496Z,99115.19
2022-09-27T03:24:27.649Z,99109.41
2022-09-27T03:26:54.302Z,99116.06
2022-09-27T03:29:20.994Z,99109.97
2022-09-27T03:31:53.459Z,99112.13
2022-09-27T03:34:39.908Z,99102.81
2022-09-27T03:37:07.262Z,99105.16
2022-09-27T03:39:34.584Z,99109.22
2022-09-27T03:42:01.254Z,99101.22
2022-09-27T03:44:28.070Z,99099.72
2022-09-27T03:46:54.727Z,99093.59
2022-09-27T03:49:21.454Z,99094.38
2022-09-27T03:51:48.161Z,99085.28
2022-09-27T03:54:15.331Z,99087.63
2022-09-27T03:56:41.987Z,99083.88
2022-09-27T03:59:08.701Z,99080.78
2022-09-27T04:01:56.402Z,99081.94
2022-09-27T04:04:43.513Z,99076.50
2022-09-27T04:07:10.793Z,99076.03
2022-09-27T04:09:41.241Z,99070.31
2022-09-27T04:12:11.777Z,99065.59
2022-09-27T04:14:38.558Z,99066.75
2022-09-27T04:17:25.809Z,99068.00
2022-09-27T04:20:11.662Z,99071.38
2022-09-27T04:22:44.181Z,99071.00
2022-09-27T04:25:11.645Z,99066.63
2022-09-27T04:27:45.620Z,99064.63
2022-09-27T04:30:13.282Z,99060.03
2022-09-27T04:32:58.458Z,99069.88
2022-09-27T04:36:12.921Z,99070.06
2022-09-27T04:38:48.176Z,99062.38
2022-09-27T04:41:21.980Z,99073.91
2022-09-27T04:43:48.671Z,99074.03
2022-09-27T04:46:15.867Z,99068.13
2022-09-27T04:48:42.855Z,99069.22
2022-09-27T04:51:10.219Z,99072.97
2022-09-27T04:53:37.088Z,99072.56
2022-09-27T04:56:06.076Z,99072.22
2022-09-27T04:58:34.391Z,99071.47
2022-09-27T05:01:03.619Z,99069.41
2022-09-27T05:03:49.019Z,99071.00
2022-09-27T05:06:16.155Z,99068.78
2022-09-27T05:08:43.417Z,99064.28
2022-09-27T05:11:19.073Z,99072.41
2022-09-27T05:14:05.532Z,99066.66
2022-09-27T05:16:40.683Z,99066.66
2022-09-27T05:19:36.552Z,99066.25
2022-09-27T05:22:11.673Z,99064.75
2022-09-27T05:24:39.341Z,99063.44
2022-09-27T05:27:08.745Z,99070.34
2022-09-27T05:29:35.769Z,99060.88
2022-09-27T05:32:25.288Z,99067.72
2022-09-27T05:35:06.242Z,99071.69
2022-09-27T05:37:34.265Z,99064.59
2022-09-27T05:40:08.526Z,99069.53
2022-09-27T05:42:43.885Z,99065.53
2022-09-27T05:45:10.851Z,99060.28
2022-09-27T05:47:37.540Z,99063.47
2022-09-27T05:50:04.370Z,99062.25
2022-09-27T05:52:31.069Z,99065.06
2022-09-27T05:54:58.444Z,99061.69
2022-09-27T05:57:25.244Z,99060.06
2022-09-27T05:59:54.211Z,99066.66
2022-09-27T06:02:21.015Z,99060.00
2022-09-27T06:05:09.288Z,99057.31
2022-09-27T06:07:41.982Z,99064.03
2022-09-27T06:10:14.911Z,99063.31
2022-09-27T06:12:42.367Z,99062.22
2022-09-27T06:15:21.965Z,99067.78
2022-09-27T06:17:48.687Z,99061.38
2022-09-27T06:20:21.411Z,99067.97
2022-09-27T06:22:48.363Z,99060.97
2022-09-27T06:25:18.720Z,99061.63
2022-09-27T06:28:12.152Z,99055.53
2022-09-27T06:30:41.527Z,99060.66
2022-09-27T06:33:23.022Z,99060.13
2022-09-27T06:35:51.542Z,99062.31
2022-09-27T06:38:21.270Z,99058.13
2022-09-27T06:41:03.636Z,99061.03
2022-09-27T06:43:38.621Z,99064.84
2022-09-27T06:46:14.116Z,99059.97
2022-09-27T06:48:49.751Z,99066.22
2022-09-27T06:51:18.562Z,99061.81
2022-09-27T06:53:45.291Z,99068.97
2022-09-27T06:56:12.745Z,99064.91
2022-09-27T06:59:07.152Z,99061.91
2022-09-27T07:01:53.940Z,99069.41
2022-09-27T07:04:26.553Z,99070.59
2022-09-27T07:07:13.987Z,99066.50
2022-09-27T07:09:44.801Z,99066.78
2022-09-27T07:12:13.652Z,99078.16
2022-09-27T07:14:44.140Z,99065.97
2022-09-27T07:17:14.135Z,99063.56
2022-09-27T07:19:43.904Z,99070.59
2022-09-27T07:22:11.946Z,99074.94
2022-09-27T07:24:40.309Z,99065.97
2022-09-27T07:27:07.154Z,99070.50
2022-09-27T07:29:34.117Z,99063.97
2022-09-27T07:32:01.367Z,99075.84
2022-09-27T07:34:28.278Z,99072.59
2022-09-27T07:37:03.473Z,99079.09
2022-09-27T07:39:32.265Z,99076.00
2022-09-27T07:42:02.468Z,99082.66
2022-09-27T07:44:29.159Z,99076.19
2022-09-27T07:47:14.119Z,99076.75
2022-09-27T07:49:59.239Z,99068.50
2022-09-27T07:52:46.553Z,99072.25
2022-09-27T07:55:32.382Z,99072.16
2022-09-27T07:58:12.372Z,99069.19
2022-09-27T08:00:40.944Z,99077.72
2022-09-27T08:03:16.260Z,99085.09
2022-09-27T08:05:44.676Z,99083.63
2022-09-27T08:08:11.828Z,99083.03
2022-09-27T08:10:42.318Z,99080.78
2022-09-27T08:13:09.224Z,99081.34
2022-09-27T08:15:39.258Z,99089.72
2022-09-27T08:18:07.917Z,99085.22
2022-09-27T08:21:10.198Z,99089.50
2022-09-27T08:23:50.315Z,99078.34
2022-09-27T08:26:23.663Z,99090.84
2022-09-27T08:28:53.532Z,99087.38
2022-09-27T08:31:25.673Z,99086.63
2022-09-27T08:33:55.109Z,99083.63
2022-09-27T08:36:24.320Z,99084.69
2022-09-27T08:38:51.870Z,99090.31
2022-09-27T08:41:39.986Z,99095.06
2022-09-27T08:44:30.163Z,99096.56
2022-09-27T08:47:17.380Z,99094.22
2022-09-27T08:50:10.451Z,99091.66
2022-09-27T08:52:43.728Z,99090.78
2022-09-27T08:55:28.986Z,99089.03
2022-09-27T08:57:57.850Z,99095.16
2022-09-27T09:00:28.175Z,99089.50
2022-09-27T09:02:57.214Z,99092.41
2022-09-27T09:05:31.000Z,99094.66
2022-09-27T09:08:18.464Z,99091.75
2022-09-27T09:11:08.383Z,99089.09
2022-09-27T09:13:53.947Z,99092.03
2022-09-27T09:16:47.447Z,99091.44
2022-09-27T09:20:12.233Z,99083.84
2022-09-27T09:23:00.741Z,99085.25
2022-09-27T09:25:46.109Z,99090.31
2022-09-27T09:28:54.283Z,99088.69
2022-09-27T09:31:48.050Z,99086.50
2022-09-27T09:34:23.211Z,99088.16
2022-09-27T09:36:57.319Z,99083.66
2022-09-27T09:39:28.944Z,99090.63
2022-09-27T09:42:05.054Z,99088.78
2022-09-27T09:44:41.503Z,99080.34
2022-09-27T09:47:15.768Z,99094.06
2022-09-27T09:49:48.583Z,99079.50
2022-09-27T09:52:20.948Z,99087.28
2022-09-27T09:55:04.368Z,99089.19
2022-09-27T09:57:39.187Z,99092.50
2022-09-27T10:00:15.544Z,99084.91
2022-09-27T10:02:50.125Z,99073.03
2022-09-27T10:05:22.537Z,99072.97
2022-09-27T10:07:59.382Z,99060.59
2022-09-27T10:10:26.216Z,99071.94
2022-09-27T10:13:04.829Z,99076.94
2022-09-27T10:15:36.985Z,99061.78
2022-09-27T10:18:04.350Z,99071.03
2022-09-27T10:20:40.227Z,99062.91
2022-09-27T10:23:15.498Z,99067.72
2022-09-27T10:26:00.780Z,99075.84
2022-09-27T10:28:39.200Z,99072.50
2022-09-27T10:31:18.345Z,99071.38
2022-09-27T10:33:59.946Z,99066.22
2022-09-27T10:36:36.668Z,99066.66
2022-09-27T10:39:05.732Z,99062.06
2022-09-27T10:41:42.023Z,99062.66
2022-09-27T10:44:16.142Z,99066.91
2022-09-27T10:46:45.370Z,99063.13
2022-09-27T10:49:37.090Z,99067.53
2022-09-27T10:52:22.896Z,99066.56
2022-09-27T10:54:54.757Z,99061.56
2022-09-27T10:57:27.117Z,99069.03
2022-09-27T10:59:59.445Z,99063.44
2022-09-27T11:02:31.142Z,99061.34
2022-09-27T11:05:15.254Z,99066.34
2022-09-27T11:07:53.067Z,99062.31
2022-09-27T11:10:42.446Z,99062.19
2022-09-27T11:13:13.214Z,99060.88
2022-09-27T11:16:41.696Z,99061.59
2022-09-27T11:19:30.593Z,99070.50
2022-09-27T11:22:16.743Z,99083.69
2022-09-27T11:24:48.508Z,99098.28
2022-09-27T11:27:47.944Z,99092.44
2022-09-27T11:30:21.491Z,99102.16
2022-09-27T11:33:20.483Z,99108.81
2022-09-27T11:35:59.968Z,99108.66
2022-09-27T11:39:12.451Z,99114.28
2022-09-27T11:41:45.082Z,99116.81
2022-09-27T11:44:21.362Z,99110.06
2022-09-27T11:46:57.588Z,99116.06
2022-09-27T11:49:43.541Z,99116.13
2022-09-27T11:52:20.877Z,99120.25
2022-09-27T11:55:09.490Z,99124.25
2022-09-27T11:57:44.964Z,99123.16
2022-09-27T12:00:24.308Z,99126.47
2022-09-27T12:03:38.246Z,99126.56
2022-09-27T12:06:13.762Z,99122.34
2022-09-27T12:09:06.898Z,99122.00
2022-09-27T12:11:46.228Z,99128.31
2022-09-27T12:14:37.848Z,99135.81
2022-09-27T12:17:13.146Z,99128.41
2022-09-27T12:19:48.606Z,99133.13
2022-09-27T12:22:53.847Z,99127.41
2022-09-27T12:25:20.823Z,99131.25
2022-09-27T12:28:00.310Z,99132.03
2022-09-27T12:30:27.265Z,99129.16
2022-09-27T12:33:06.342Z,99124.34
2022-09-27T12:35:40.139Z,99134.84
2022-09-27T12:38:14.752Z,99127.47
2022-09-27T12:40:45.520Z,99133.63
2022-09-27T12:43:19.777Z,99128.19
2022-09-27T12:46:17.944Z,99129.94
2022-09-27T12:48:50.772Z,99125.72
2022-09-27T12:51:22.384Z,99130.22
2022-09-27T12:54:12.701Z,99118.78
2022-09-27T12:56:57.099Z,99126.22
2022-09-27T12:59:54.046Z,99116.84
2022-09-27T13:03:14.582Z,99132.22
2022-09-27T13:05:58.687Z,99134.44
2022-09-27T13:08:34.483Z,99135.44
2022-09-27T13:11:12.750Z,99135.00
2022-09-27T13:13:40.014Z,99135.13
2022-09-27T13:16:09.581Z,99144.00
2022-09-27T13:18:54.102Z,99143.06
2022-09-27T13:21:49.281Z,99139.88
2022-09-27T13:24:39.389Z,99145.59
2022-09-27T13:27:23.570Z,99143.78
2022-09-27T13:29:51.544Z,99152.47
2022-09-27T13:32:23.342Z,99150.63
2022-09-27T13:35:24.700Z,99157.72
2022-09-27T13:38:07.135Z,99155.41
2022-09-27T13:40:42.157Z,99155.63
2022-09-27T13:43:12.112Z,99153.78
2022-09-27T13:46:08.027Z,99156.69
2022-09-27T13:48:50.713Z,99169.53
2022-09-27T13:51:35.828Z,99157.75
2022-09-27T13:54:27.327Z,99172.66
2022-09-27T13:56:56.282Z,99173.75
2022-09-27T13:59:49.307Z,99175.09
2022-09-27T14:02:41.822Z,99186.25
2022-09-27T14:05:13.001Z,99178.84
2022-09-27T14:07:42.031Z,99190.69
2022-09-27T14:10:18.393Z,99179.88
2022-09-27T14:12:46.444Z,99184.56
2022-09-27T14:15:19.994Z,99187.09
2022-09-27T14:17:47.148Z,99184.09
2022-09-27T14:20:38.522Z,99190.59
2022-09-27T14:23:16.101Z,99189.28
2022-09-27T14:25:51.094Z,99186.53
2022-09-27T14:28:27.706Z,99188.75
2022-09-27T14:31:17.902Z,99196.69
2022-09-27T14:34:08.994Z,99203.38
2022-09-27T14:36:56.613Z,99200.69
2022-09-27T14:39:32.672Z,99200.41
2022-09-27T14:42:05.636Z,99199.63
2022-09-27T14:44:33.451Z,99200.69
2022-09-27T14:47:20.284Z,99195.00
2022-09-27T14:49:48.944Z,99208.25
2022-09-27T14:52:28.595Z,99210.72
2022-09-27T14:55:00.253Z,99213.53
2022-09-27T14:57:30.276Z,99209.59
2022-09-27T14:59:58.273Z,99213.75
2022-09-27T15:02:26.482Z,99216.03
2022-09-27T15:04:53.801Z,99226.63
2022-09-27T15:07:22.455Z,99231.38
2022-09-27T15:09:50.660Z,99226.75
2022-09-27T15:12:23.418Z,99232.09
2022-09-27T15:14:54.018Z,99239.94
2022-09-27T15:17:21.873Z,99240.69
2022-09-27T15:20:04.155Z,99237.63
2022-09-27T15:22:43.965Z,99253.53
2022-09-27T15:25:32.654Z,99248.25
2022-09-27T15:28:20.561Z,99254.22
2022-09-27T15:30:54.787Z,99247.34
2022-09-27T15:33:25.068Z,99258.38
2022-09-27T15:35:54.323Z,99251.53
2022-09-27T15:38:26.275Z,99265.78
2022-09-27T15:40:52.943Z,99266.00
2022-09-27T15:43:36.008Z,99263.72
2022-09-27T15:46:26.031Z,99262.47
2022-09-27T15:49:18.137Z,99271.03
2022-09-27T15:51:46.248Z,99276.59
2022-09-27T15:54:13.277Z,99264.19
2022-09-27T15:56:40.347Z,99267.00
2022-09-27T15:59:09.401Z,99263.78
2022-09-27T16:01:36.246Z,99269.34
2022-09-27T16:04:02.955Z,99260.34
2022-09-27T16:06:30.473Z,99263.75
2022-09-27T16:08:57.302Z,99276.19
2022-09-27T16:11:24.020Z,99271.78
2022-09-27T16:13:53.008Z,99279.81
2022-09-27T16:16:22.918Z,99271.72
2022-09-27T16:18:50.104Z,99266.13
2022-09-27T16:21:16.903Z,99281.09
2022-09-27T16:23:43.762Z,99276.72
2022-09-27T16:26:11.567Z,99279.50
2022-09-27T16:28:38.340Z,99287.66
2022-09-27T16:31:06.495Z,99290.66
2022-09-27T16:33:33.871Z,99292.69
2022-09-27T16:36:03.669Z,99289.34
2022-09-27T16:38:30.469Z,99293.97
2022-09-27T16:41:02.502Z,99298.88
2022-09-27T16:43:31.963Z,99297.50
2022-09-27T16:46:11.904Z,99300.41
2022-09-27T16:48:39.529Z,99305.19
2022-09-27T16:51:27.947Z,99295.56
2022-09-27T16:53:54.656Z,99306.56
2022-09-27T16:56:21.669Z,99297.91
2022-09-27T16:58:48.344Z,99307.72
2022-09-27T17:01:17.088Z,99307.94
2022-09-27T17:03:45.539Z,99302.91
2022-09-27T17:06:12.705Z,99303.03
2022-09-27T17:08:39.440Z,99304.19
2022-09-27T17:11:07.504Z,99308.78
2022-09-27T17:13:34.330Z,99311.75
2022-09-27T17:16:03.984Z,99304.88
2022-09-27T17:18:31.027Z,99310.38
2022-09-27T17:21:02.971Z,99315.06
2022-09-27T17:23:33.567Z,99310.97
2022-09-27T17:26:17.105Z,99313.06
2022-09-27T17:28:44.035Z,99319.56
2022-09-27T17:31:15.324Z,99327.13
2022-09-27T17:33:45.335Z,99334.47
2022-09-27T17:36:37.541Z,99335.63
2022-09-27T17:39:05.252Z,99333.16
2022-09-27T17:41:37.568Z,99327.25
2022-09-27T17:44:07.440Z,99339.03
2022-09-27T17:46:35.909Z,99334.63
2022-09-27T17:49:21.932Z,99335.59
2022-09-27T17:51:53.235Z,99341.03
2022-09-27T17:54:23.436Z,99343.69
2022-09-27T17:56:51.042Z,99341.97
2022-09-27T17:59:18.280Z,99346.47
2022-09-27T18:01:55.645Z,99342.09
2022-09-27T18:04:26.045Z,99347.53
2022-09-27T18:06:52.874Z,99346.66
2022-09-27T18:09:19.881Z,99352.97
2022-09-27T18:11:47.881Z,99356.47
2022-09-27T18:14:15.345Z,99356.47
2022-09-27T18:16:43.957Z,99355.94
2022-09-27T18:19:16.910Z,99356.13
2022-09-27T18:21:44.340Z,99361.47
2022-09-27T18:24:11.997Z,99367.97
2022-09-27T18:26:39.925Z,99366.44
2022-09-27T18:29:10.261Z,99370.03
2022-09-27T18:31:37.611Z,99367.50
2022-09-27T18:34:05.316Z,99379.31
2022-09-27T18:36:32.171Z,99376.06
2022-09-27T18:39:03.477Z,99378.91
2022-09-27T18:41:32.759Z,99375.03
2022-09-27T18:44:01.805Z,99381.13
2022-09-27T18:46:35.515Z,99377.13
2022-09-27T18:49:07.949Z,99380.75
2022-09-27T18:51:37.923Z,99383.41
2022-09-27T18:54:07.284Z,99378.38
2022-09-27T18:56:39.595Z,99383.78
2022-09-27T18:59:08.928Z,99383.88
2022-09-27T19:01:39.793Z,99390.34
2022-09-27T19:04:10.683Z,99385.31
2022-09-27T19:06:38.819Z,99393.50
2022-09-27T19:09:06.812Z,99388.44
2022-09-27T19:11:34.249Z,99385.19
2022-09-27T19:14:01.755Z,99386.22
2022-09-27T19:16:29.419Z,99383.94
2022-09-27T19:18:56.291Z,99386.13
2022-09-27T19:21:25.373Z,99385.34
2022-09-27T19:23:52.514Z,99393.25
2022-09-27T19:26:21.803Z,99387.13
2022-09-27T19:28:49.776Z,99388.09
2022-09-27T19:31:22.854Z,99388.94
2022-09-27T19:33:49.933Z,99388.19
2022-09-27T19:36:17.990Z,99395.41
2022-09-27T19:38:45.586Z,99393.59
2022-09-27T19:41:14.924Z,99386.56
2022-09-27T19:43:42.064Z,99390.25
2022-09-27T19:46:15.694Z,99387.91
2022-09-27T19:48:43.652Z,99395.06
2022-09-27T19:51:19.313Z,99391.84
2022-09-27T19:53:46.372Z,99395.72
2022-09-27T19:56:13.679Z,99385.19
2022-09-27T19:58:42.258Z,99393.97
2022-09-27T20:01:19.377Z,99386.06
2022-09-27T20:03:46.862Z,99395.19
2022-09-27T20:06:15.525Z,99398.72
2022-09-27T20:08:42.858Z,99392.63
2022-09-27T20:11:12.191Z,99400.78
2022-09-27T20:13:39.629Z,99391.34
2022-09-27T20:16:18.709Z,99400.19
2022-09-27T20:18:47.604Z,99397.72
2022-09-27T20:21:15.355Z,99389.22
2022-09-27T20:23:42.579Z,99397.28
2022-09-27T20:26:13.485Z,99382.44
2022-09-27T20:28:44.631Z,99396.75
2022-09-27T20:31:16.259Z,99394.09
2022-09-27T20:33:46.897Z,99393.31
2022-09-27T20:36:21.701Z,99389.88
2022-09-27T20:38:50.616Z,99396.00
2022-09-27T20:41:20.479Z,99399.44
2022-09-27T20:43:48.705Z,99393.94
2022-09-27T20:46:17.246Z,99397.47
2022-09-27T20:48:45.142Z,99389.38
2022-09-27T20:51:16.461Z,99398.22
2022-09-27T20:53:45.193Z,99394.72
2022-09-27T20:56:25.515Z,99394.63
2022-09-27T20:58:53.804Z,99395.47
2022-09-27T21:01:22.003Z,99392.91
2022-09-27T21:03:53.303Z,99392.97
2022-09-27T21:06:23.026Z,99395.66
2022-09-27T21:08:50.731Z,99393.94
2022-09-27T21:11:18.056Z,99402.97
2022-09-27T21:13:45.682Z,99407.53
2022-09-27T21:16:14.942Z,99407.53
2022-09-27T21:18:42.005Z,99411.22
2022-09-27T21:21:10.687Z,99406.00
2022-09-27T21:23:43.460Z,99407.69
2022-09-27T21:26:16.664Z,99410.28
2022-09-27T21:28:44.477Z,99412.19
2022-09-27T21:31:15.701Z,99409.44
2022-09-27T21:33:51.346Z,99412.94
2022-09-27T21:36:18.064Z,99417.31
2022-09-27T21:38:44.745Z,99412.94
2022-09-27T21:41:14.738Z,99420.88
2022-09-27T21:43:42.000Z,99416.53
2022-09-27T21:46:10.289Z,99420.34
2022-09-27T21:48:38.819Z,99413.09
2022-09-27T21:51:10.036Z,99413.88
2022-09-27T21:53:38.405Z,99416.53
2022-09-27T21:56:05.996Z,99416.53
2022-09-27T21:58:37.664Z,99413.09
2022-09-27T22:01:12.468Z,99413.22
2022-09-27T22:03:40.384Z,99416.81
2022-09-27T22:06:09.902Z,99412.41
2022-09-27T22:08:36.835Z,99416.19
2022-09-27T22:11:04.149Z,99416.19
2022-09-27T22:13:30.975Z,99419.13
2022-09-27T22:16:02.670Z,99420.09
2022-09-27T22:18:29.424Z,99413.03
2022-09-27T22:21:03.998Z,99415.69
2022-09-27T22:23:31.227Z,99418.34
2022-09-27T22:25:58.536Z,99412.25
2022-09-27T22:28:26.064Z,99424.66
2022-09-27T22:30:53.064Z,99415.00
2022-09-27T22:33:19.769Z,99412.53
2022-09-27T22:35:47.420Z,99406.41
2022-09-27T22:38:14.358Z,99413.63
2022-09-27T22:40:42.201Z,99408.31
2022-09-27T22:43:08.980Z,99408.31
2022-09-27T22:45:35.637Z,99409.25
2022-09-27T22:48:02.326Z,99412.75
2022-09-27T22:50:28.974Z,99409.09
2022-09-27T22:52:55.636Z,99415.34
2022-09-27T22:55:22.383Z,99416.88
2022-09-27T22:57:49.053Z,99418.84
2022-09-27T23:00:15.782Z,99419.63
2022-09-27T23:02:42.475Z,99415.19
2022-09-27T23:05:09.335Z,99405.81
2022-09-27T23:07:35.967Z,99411.13
2022-09-27T23:10:02.733Z,99406.75
2022-09-27T23:12:29.430Z,99408.13
2022-09-27T23:14:57.419Z,99404.44
2022-09-27T23:17:24.118Z,99403.50
2022-09-27T23:19:50.774Z,99395.41
2022-09-27T23:22:17.445Z,99400.75
2022-09-27T23:24:44.132Z,99406.06
2022-09-27T23:27:29.483Z,99410.72
2022-09-27T23:29:56.209Z,99401.69
2022-09-27T23:32:22.858Z,99406.75
2022-09-27T23:34:49.909Z,99414.75
2022-09-27T23:37:16.564Z,99410.72
2022-09-27T23:39:43.279Z,99406.06
2022-09-27T23:42:10.055Z,99411.31
2022-09-27T23:44:36.759Z,99398.84
2022-09-27T23:47:04.368Z,99404.25
2022-09-27T23:49:32.299Z,99403.16
2022-09-27T23:52:00.813Z,99402.97
2022-09-27T23:54:28.043Z,99406.59
2022-09-27T23:56:54.789Z,99412.53
2022-09-27T23:59:21.499Z,99404.34
